createdAt,value
2022-08-14T00:02:52.924Z,3.60
2022-08-14T00:07:54.225Z,3.80
2022-08-14T00:12:57.361Z,3.90
2022-08-14T00:17:58.720Z,3.80
2022-08-14T00:23:12.450Z,4.10
2022-08-14T00:28:18.502Z,3.60
2022-08-14T00:33:19.566Z,3.50
2022-08-14T00:38:21.461Z,3.60
2022-08-14T00:43:25.523Z,3.80
2022-08-14T00:48:36.963Z,3.60
2022-08-14T00:53:40.202Z,3.60
2022-08-14T00:58:48.321Z,3.70
2022-08-14T01:03:53.014Z,3.70
2022-08-14T01:08:58.138Z,3.60
2022-08-14T01:14:04.993Z,3.90
2022-08-14T01:19:43.510Z,4.10
2022-08-14T01:24:45.238Z,3.80
2022-08-14T01:29:51.250Z,3.40
2022-08-14T01:35:17.957Z,4.00
2022-08-14T01:40:33.092Z,4.50
2022-08-14T01:45:40.486Z,4.30
2022-08-14T01:50:42.548Z,3.90
2022-08-14T01:55:43.726Z,4.10
2022-08-14T02:00:47.847Z,3.80
2022-08-14T02:05:49.486Z,3.60
2022-08-14T02:11:13.367Z,3.90
2022-08-14T02:16:24.680Z,4.20
2022-08-14T02:21:39.442Z,3.90
2022-08-14T02:28:19.327Z,4.10
2022-08-14T02:32:10.380Z,4.00
2022-08-14T02:37:45.710Z,4.20
2022-08-14T02:42:54.876Z,4.10
2022-08-14T02:48:05.863Z,3.90
2022-08-14T02:53:11.797Z,4.10
2022-08-14T02:58:21.606Z,3.70
2022-08-14T03:03:32.091Z,3.90
2022-08-14T03:08:46.152Z,4.00
2022-08-14T03:13:53.151Z,3.90
2022-08-14T03:18:59.989Z,3.70
2022-08-14T03:24:23.069Z,3.60
2022-08-14T03:29:26.896Z,3.70
2022-08-14T03:34:47.763Z,3.50
2022-08-14T03:39:53.427Z,4.00
2022-08-14T03:45:26.720Z,4.00
2022-08-14T03:55:30.493Z,3.80
2022-08-14T04:00:43.549Z,3.90
2022-08-14T04:05:49.218Z,3.90
2022-08-14T04:10:50.422Z,3.10
2022-08-14T04:15:56.092Z,3.70
2022-08-14T04:21:04.059Z,3.30
2022-08-14T04:26:08.207Z,3.50
2022-08-14T04:31:10.593Z,3.40
2022-08-14T04:36:16.092Z,3.40
2022-08-14T04:41:37.646Z,3.70
2022-08-14T04:47:03.203Z,3.50
2022-08-14T04:52:04.393Z,3.80
2022-08-14T04:57:16.766Z,3.80
2022-08-14T05:02:18.436Z,3.40
2022-08-14T05:07:19.671Z,3.50
2022-08-14T05:13:12.656Z,3.50
2022-08-14T05:18:37.018Z,3.30
2022-08-14T05:23:33.830Z,3.60
2022-08-14T05:28:35.560Z,3.10
2022-08-14T05:33:38.011Z,3.00
2022-08-14T05:38:43.747Z,2.70
2022-08-14T05:43:47.222Z,2.90
2022-08-14T05:48:54.044Z,2.70
2022-08-14T05:54:01.682Z,2.40
2022-08-14T06:04:19.098Z,2.20
2022-08-14T06:09:20.677Z,2.40
2022-08-14T06:14:24.025Z,2.50
2022-08-14T06:19:25.481Z,2.40
2022-08-14T06:24:27.584Z,2.50
2022-08-14T06:29:33.588Z,2.20
2022-08-14T06:35:02.244Z,2.30
2022-08-14T06:39:59.832Z,2.40
2022-08-14T06:45:01.034Z,2.60
2022-08-14T06:50:06.892Z,2.50
2022-08-14T06:55:12.089Z,3.00
2022-08-14T07:00:26.687Z,2.40
2022-08-14T07:05:57.942Z,2.60
2022-08-14T07:11:03.045Z,2.80
2022-08-14T07:16:05.617Z,2.30
2022-08-14T07:21:08.363Z,2.20
2022-08-14T07:26:12.764Z,2.40
2022-08-14T07:31:16.441Z,2.20
2022-08-14T07:36:27.225Z,2.20
2022-08-14T07:41:33.989Z,3.00
2022-08-14T07:46:37.303Z,2.70
2022-08-14T07:51:41.531Z,3.00
2022-08-14T07:56:46.876Z,3.00
2022-08-14T08:01:52.730Z,2.70
2022-08-14T08:06:54.405Z,2.60
2022-08-14T08:11:57.482Z,2.90
2022-08-14T08:16:59.097Z,3.00
2022-08-14T08:22:02.743Z,2.80
2022-08-14T08:27:16.697Z,3.00
2022-08-14T08:32:19.193Z,3.00
2022-08-14T08:37:20.481Z,2.70
2022-08-14T08:42:31.455Z,2.90
2022-08-14T08:47:40.267Z,3.60
2022-08-14T08:52:53.149Z,3.60
2022-08-14T08:57:59.652Z,3.50
2022-08-14T09:03:09.949Z,3.80
2022-08-14T09:08:31.946Z,3.70
2022-08-14T09:13:35.377Z,3.80
2022-08-14T09:18:40.362Z,3.80
2022-08-14T09:24:29.478Z,3.80
2022-08-14T09:29:04.599Z,3.70
2022-08-14T09:34:57.928Z,4.10
2022-08-14T09:40:20.496Z,3.80
2022-08-14T09:45:53.190Z,4.10
2022-08-14T09:50:56.931Z,3.90
2022-08-14T09:55:59.132Z,3.90
2022-08-14T10:01:09.394Z,4.20
2022-08-14T10:06:19.889Z,4.00
2022-08-14T10:11:31.045Z,4.20
2022-08-14T10:16:46.513Z,4.30
2022-08-14T10:23:14.241Z,4.40
2022-08-14T10:27:30.583Z,4.60
2022-08-14T10:32:52.242Z,4.30
2022-08-14T10:37:53.602Z,4.80
2022-08-14T10:42:55.956Z,4.90
2022-08-14T10:48:08.261Z,5.70
2022-08-14T10:53:13.272Z,4.40
2022-08-14T10:58:14.931Z,4.90
2022-08-14T11:03:26.483Z,4.60
2022-08-14T11:08:36.777Z,5.10
2022-08-14T11:13:45.810Z,4.90
2022-08-14T11:18:51.325Z,5.10
2022-08-14T11:23:59.053Z,4.80
2022-08-14T11:29:04.975Z,5.80
2022-08-14T11:34:06.249Z,5.40
2022-08-14T11:39:35.003Z,5.00
2022-08-14T11:44:45.318Z,5.00
2022-08-14T11:49:48.887Z,5.60
2022-08-14T11:54:57.959Z,5.80
2022-08-14T12:00:08.474Z,5.60
2022-08-14T12:05:09.941Z,5.60
2022-08-14T12:10:26.056Z,5.70
2022-08-14T12:15:36.117Z,5.80
2022-08-14T12:20:45.641Z,5.40
2022-08-14T12:26:39.897Z,5.50
2022-08-14T12:31:44.980Z,5.00
2022-08-14T12:36:48.118Z,5.90
2022-08-14T12:41:56.954Z,5.80
2022-08-14T12:47:19.463Z,5.50
2022-08-14T12:52:43.123Z,5.70
2022-08-14T12:57:57.768Z,5.70
2022-08-14T13:02:59.478Z,5.60
2022-08-14T13:08:04.207Z,5.90
2022-08-14T13:13:16.124Z,5.30
2022-08-14T13:18:21.283Z,5.80
2022-08-14T13:23:32.114Z,6.00
2022-08-14T13:29:02.754Z,5.50
2022-08-14T13:34:04.536Z,5.60
2022-08-14T13:39:08.972Z,5.50
2022-08-14T13:44:15.929Z,6.20
2022-08-14T13:49:24.075Z,6.60
2022-08-14T13:54:29.118Z,6.60
2022-08-14T13:59:38.096Z,6.30
2022-08-14T14:04:42.625Z,6.20
2022-08-14T14:09:52.772Z,6.40
2022-08-14T14:14:55.151Z,6.80
2022-08-14T14:19:57.760Z,7.90
2022-08-14T14:24:58.905Z,8.00
2022-08-14T14:30:01.039Z,7.70
2022-08-14T14:35:07.398Z,9.70
2022-08-14T14:40:52.349Z,5.70
2022-08-14T14:45:35.100Z,3.40
2022-08-14T14:50:38.987Z,3.80
2022-08-14T14:56:47.447Z,5.90
2022-08-14T15:01:08.566Z,6.40
2022-08-14T15:06:12.729Z,7.30
2022-08-14T15:11:19.202Z,6.30
2022-08-14T15:16:21.794Z,6.80
2022-08-14T15:21:26.220Z,6.20
2022-08-14T15:26:32.157Z,6.60
2022-08-14T15:31:36.420Z,6.80
2022-08-14T15:36:42.161Z,6.90
2022-08-14T15:41:45.262Z,21.90
2022-08-14T15:46:46.892Z,12.10
2022-08-14T15:51:50.865Z,9.30
2022-08-14T15:56:56.681Z,8.70
2022-08-14T16:01:59.466Z,8.10
2022-08-14T16:07:00.889Z,13.60
2022-08-14T16:12:04.622Z,11.30
2022-08-14T16:17:08.167Z,10.70
2022-08-14T16:23:00.470Z,10.40
2022-08-14T16:27:39.658Z,10.20
2022-08-14T16:32:55.340Z,9.80
2022-08-14T16:37:58.265Z,9.00
2022-08-14T16:43:04.460Z,12.40
2022-08-14T16:48:54.958Z,11.10
2022-08-14T16:53:36.150Z,10.80
2022-08-14T16:58:37.825Z,11.60
2022-08-14T17:04:03.527Z,10.50
2022-08-14T17:09:07.901Z,10.60
2022-08-14T17:14:13.432Z,11.20
2022-08-14T17:19:19.432Z,11.80
2022-08-14T17:24:56.085Z,14.50
2022-08-14T17:29:44.919Z,14.00
2022-08-14T17:35:01.822Z,14.20
2022-08-14T17:40:15.256Z,13.90
2022-08-14T17:45:42.887Z,13.80
2022-08-14T17:50:58.603Z,13.80
2022-08-14T17:56:03.979Z,14.00
2022-08-14T18:01:05.830Z,14.70
2022-08-14T18:06:38.191Z,14.30
2022-08-14T18:11:45.838Z,13.20
2022-08-14T18:16:49.397Z,13.00
2022-08-14T18:21:56.922Z,13.40
2022-08-14T18:27:08.946Z,13.90
2022-08-14T18:32:32.626Z,15.30
2022-08-14T18:37:33.795Z,15.10
2022-08-14T18:42:35.336Z,14.80
2022-08-14T18:48:03.549Z,16.90
2022-08-14T18:53:10.528Z,14.90
2022-08-14T18:58:20.800Z,14.70
2022-08-14T19:03:34.278Z,14.90
2022-08-14T19:08:44.729Z,16.70
2022-08-14T19:13:50.997Z,16.80
2022-08-14T19:19:00.079Z,15.90
2022-08-14T19:24:29.721Z,15.50
2022-08-14T19:29:37.754Z,16.10
2022-08-14T19:34:48.077Z,14.70
2022-08-14T19:39:56.048Z,15.90
2022-08-14T19:44:57.759Z,16.80
2022-08-14T19:50:07.997Z,16.30
2022-08-14T19:55:15.732Z,14.50
2022-08-14T20:00:29.127Z,14.70
2022-08-14T20:05:34.666Z,14.30
2022-08-14T20:11:08.562Z,16.50
2022-08-14T20:16:12.236Z,16.00
2022-08-14T20:21:15.075Z,16.50
2022-08-14T20:26:31.163Z,17.40
2022-08-14T20:31:36.383Z,14.60
2022-08-14T20:36:39.660Z,13.10
2022-08-14T20:41:49.087Z,14.00
2022-08-14T20:47:00.190Z,14.80
2022-08-14T20:52:19.263Z,14.00
2022-08-14T20:57:23.096Z,15.10
2022-08-14T21:02:30.411Z,15.50
2022-08-14T21:07:39.129Z,16.30
2022-08-14T21:13:09.356Z,15.40
2022-08-14T21:18:01.532Z,15.80
2022-08-14T21:23:03.745Z,16.30
2022-08-14T21:28:09.693Z,16.20
2022-08-14T21:33:32.163Z,14.90
2022-08-14T21:38:34.807Z,16.40
2022-08-14T21:43:36.050Z,16.20
2022-08-14T21:48:44.307Z,14.50
2022-08-14T21:53:58.906Z,14.90
2022-08-14T21:59:04.479Z,15.10
2022-08-14T22:04:07.370Z,14.20
2022-08-14T22:09:36.394Z,14.20
2022-08-14T22:14:43.125Z,14.10
2022-08-14T22:19:54.411Z,14.40
2022-08-14T22:25:00.091Z,13.70
2022-08-14T22:30:05.994Z,13.80
2022-08-14T22:35:09.090Z,14.10
2022-08-14T22:40:48.377Z,14.00
2022-08-14T22:45:36.195Z,13.50
2022-08-14T22:50:48.834Z,18.50
2022-08-14T22:55:54.408Z,17.50
2022-08-14T23:00:56.550Z,15.20
2022-08-14T23:05:59.284Z,16.50
2022-08-14T23:11:03.090Z,13.80
2022-08-14T23:16:04.301Z,12.40
2022-08-14T23:21:09.831Z,12.10
2022-08-14T23:26:49.270Z,12.20
2022-08-14T23:31:35.647Z,12.30
2022-08-14T23:36:53.462Z,12.00
2022-08-14T23:41:57.450Z,11.00
2022-08-14T23:47:11.598Z,12.10
2022-08-14T23:53:06.218Z,11.10
2022-08-14T23:57:58.135Z,10.00
